Terminal Aerodrome Forecast
Issued by NWS Pueblo, CO

Home | Current Version | Previous Version | Text Only | Print | Product List | Glossary On
Versions: 1 2 3 4 5 6 7 8 9 10 11 12 13 14 15 16 17 18 19 20 21 22 23 24 25 26 27 28 29 30 31 32 33 34 35 36 37
000
FTUS45 KPUB 222320
TAFPUB
TAF
KPUB 222320Z 2300/2324 15010KT P6SM VCTS SCT060CB BKN120
      TEMPO 2300/2301 VRB15G25KT
     FM230300 06007KT P6SM SCT120 SCT200
     FM230600 VRB05KT P6SM FEW140
     FM232000 17008KT P6SM SCT070 SCT140=

USA.gov is the U.S. government's official web portal to all federal, state and local government web resources and services.